Time;durP1;ratioP1;P1;durP2;ratioP2;P2;SDS_P1;SDS_P2;PMS_P1;PMS_P2;Temp;Humidity;BMP_temperature;BMP_pressure;BME280_temperature;BME280_humidity;BME280_pressure;Samples;Min_cycle;Max_cycle;Signal;HPM_P1;HPM_P2
2023/09/17 00:00:59;;;;;;;12.30;7.12;;;;;;;14.29;71.75;100739.06;1736637;82;27209;-60
2023/09/17 00:03:27;;;;;;;8.93;7.45;;;;;;;14.26;71.77;100736.98;1737517;82;25435;-60
2023/09/17 00:05:53;;;;;;;10.35;7.58;;;;;;;14.23;71.67;100730.81;1737315;82;25419;-60
2023/09/17 00:08:19;;;;;;;10.03;7.30;;;;;;;14.19;71.77;100733.39;1737286;82;26108;-60
2023/09/17 00:10:46;;;;;;;11.12;6.97;;;;;;;14.16;71.86;100734.81;1737349;82;25391;-60
2023/09/17 00:13:12;;;;;;;12.55;7.72;;;;;;;14.13;72.28;100727.32;1716620;82;27563;-60
2023/09/17 00:15:38;;;;;;;9.28;7.15;;;;;;;14.09;72.25;100728.28;1737209;82;25391;-60
2023/09/17 00:18:05;;;;;;;9.23;7.47;;;;;;;14.05;72.11;100725.41;1737350;82;25460;-60
2023/09/17 00:20:32;;;;;;;9.20;7.45;;;;;;;14.03;72.44;100710.52;1740576;82;25531;-59
2023/09/17 00:23:01;;;;;;;10.88;7.35;;;;;;;14.03;72.48;100714.59;1742272;82;25547;-60
2023/09/17 00:25:28;;;;;;;9.20;7.60;;;;;;;13.98;72.69;100713.66;1742830;82;27565;-60
2023/09/17 00:27:54;;;;;;;10.43;7.45;;;;;;;13.95;72.92;100704.77;1742522;82;25525;-60
2023/09/17 00:30:21;;;;;;;11.03;7.20;;;;;;;13.91;72.84;100703.83;1742621;82;25454;-60
2023/09/17 00:32:48;;;;;;;9.48;7.70;;;;;;;13.88;72.96;100699.03;1742541;82;25492;-60
2023/09/17 00:35:14;;;;;;;9.85;7.08;;;;;;;13.87;73.23;100702.06;1742632;82;25434;-59
2023/09/17 00:37:42;;;;;;;8.93;7.65;;;;;;;13.85;73.27;100701.59;1742576;82;27464;-60
2023/09/17 00:40:12;;;;;;;10.50;7.80;;;;;;;13.83;73.40;100701.34;1742491;82;25443;-60
2023/09/17 00:42:40;;;;;;;11.97;7.62;;;;;;;13.81;73.53;100699.51;1742591;82;25483;-60
2023/09/17 00:45:09;;;;;;;10.68;6.97;;;;;;;13.78;73.67;100693.34;1742546;82;25490;-59
2023/09/17 00:47:35;;;;;;;8.95;7.00;;;;;;;13.77;73.70;100688.23;1742623;82;25455;-60
2023/09/17 00:50:02;;;;;;;10.90;8.08;;;;;;;13.75;73.87;100687.19;1742674;82;27645;-60
2023/09/17 00:52:29;;;;;;;9.35;6.90;;;;;;;13.72;74.26;100686.46;1742539;82;25700;-60
2023/09/17 00:54:56;;;;;;;10.10;7.28;;;;;;;13.68;73.85;100680.08;1723348;82;25505;-60
2023/09/17 00:57:23;;;;;;;10.48;6.90;;;;;;;13.66;74.09;100680.97;1742537;82;25512;-60
2023/09/17 00:59:49;;;;;;;11.38;7.47;;;;;;;13.66;73.99;100682.89;1742622;82;25402;-60
2023/09/17 01:02:19;;;;;;;13.05;8.65;;;;;;;13.63;74.17;100685.11;1742582;82;27014;-60
2023/09/17 01:04:50;;;;;;;9.93;7.62;;;;;;;13.62;74.26;100680.81;1742451;82;25678;-60
2023/09/17 01:07:17;;;;;;;10.82;7.40;;;;;;;13.61;74.22;100673.77;1742615;82;25512;-60
2023/09/17 01:09:44;;;;;;;11.68;8.10;;;;;;;13.62;74.48;100678.63;1742527;82;26029;-60
2023/09/17 01:12:11;;;;;;;9.58;7.25;;;;;;;13.59;74.55;100672.50;1742636;82;25421;-60
2023/09/17 01:14:38;;;;;;;12.23;7.45;;;;;;;13.57;74.53;100674.17;1742622;82;27996;-60
2023/09/17 01:17:10;;;;;;;8.55;6.95;;;;;;;13.57;74.64;100667.92;1742485;82;25686;-59
2023/09/17 01:19:38;;;;;;;10.00;7.30;;;;;;;13.55;74.50;100670.98;1742366;82;25384;-60
2023/09/17 01:22:30;;;;;;;9.75;7.40;;;;;;;13.53;74.57;100659.61;1742572;82;26014;-59
2023/09/17 01:25:11;;;;;;;11.45;7.33;;;;;;;13.51;74.92;100657.77;1741204;82;25494;-60
2023/09/17 01:27:45;;;;;;;12.25;7.80;;;;;;;13.47;74.86;100658.19;1742311;82;28148;-60
2023/09/17 01:30:15;;;;;;;10.72;7.95;;;;;;;13.44;75.07;100658.81;1740493;82;25575;-60
2023/09/17 01:32:39;;;;;;;11.08;8.60;;;;;;;13.41;75.36;100652.09;1742095;82;25510;-60
2023/09/17 01:35:07;;;;;;;11.05;7.75;;;;;;;13.39;75.79;100643.47;1742531;82;25483;-60
2023/09/17 01:37:36;;;;;;;13.15;6.53;;;;;;;13.39;75.81;100642.67;1742535;82;25461;-60
2023/09/17 01:40:13;;;;;;;9.15;7.40;;;;;;;13.36;75.66;100643.31;1742684;82;27557;-60
2023/09/17 01:42:44;;;;;;;10.32;7.72;;;;;;;13.36;75.57;100640.59;1742480;82;25396;-60
2023/09/17 01:45:13;;;;;;;9.30;7.55;;;;;;;13.34;75.81;100630.61;1742562;82;25470;-60
2023/09/17 01:47:43;;;;;;;10.95;7.40;;;;;;;13.31;75.67;100638.79;1742635;82;25481;-60
2023/09/17 01:50:15;;;;;;;12.65;7.83;;;;;;;13.30;76.23;100637.75;1742700;82;25471;-61
2023/09/17 01:52:43;;;;;;;9.80;7.35;;;;;;;13.27;76.43;100636.48;1742543;82;27474;-60
2023/09/17 01:55:10;;;;;;;9.43;7.03;;;;;;;13.27;76.61;100635.12;1742457;82;25391;-60
2023/09/17 01:57:37;;;;;;;11.93;7.58;;;;;;;13.29;76.68;100631.52;1742512;82;25486;-60
2023/09/17 02:00:18;;;;;;;11.33;7.10;;;;;;;13.31;76.85;100633.36;1742481;82;26030;-60
2023/09/17 02:02:51;;;;;;;9.80;7.50;;;;;;;13.30;76.46;100627.70;1742574;82;25395;-60
2023/09/17 02:05:20;;;;;;;10.38;7.53;;;;;;;13.31;76.66;100631.21;1742531;82;27473;-60
2023/09/17 02:07:47;;;;;;;12.55;8.48;;;;;;;13.31;76.96;100629.28;1742588;82;25464;-60
2023/09/17 02:10:14;;;;;;;10.70;7.67;;;;;;;13.33;76.81;100633.89;1742525;82;25416;-60
2023/09/17 02:12:40;;;;;;;11.03;7.80;;;;;;;13.34;77.01;100628.69;1742492;82;25478;-59
2023/09/17 02:15:09;;;;;;;9.60;6.95;;;;;;;13.36;77.19;100629.16;1742551;82;25476;-60
2023/09/17 02:17:35;;;;;;;10.15;7.33;;;;;;;13.37;76.84;100623.97;1742629;82;27484;-60
2023/09/17 02:20:02;;;;;;;10.85;7.53;;;;;;;13.38;76.70;100620.15;1742338;82;25832;-60
2023/09/17 02:22:28;;;;;;;13.60;7.17;;;;;;;13.38;76.92;100622.86;1742528;82;25424;-60
2023/09/17 02:24:54;;;;;;;10.30;7.90;;;;;;;13.38;76.87;100617.44;1742471;82;25484;-60
2023/09/17 02:27:21;;;;;;;8.53;6.85;;;;;;;13.34;76.92;100617.02;1742531;82;25410;-60
2023/09/17 02:29:47;;;;;;;10.82;8.25;;;;;;;13.30;76.94;100618.73;1742505;82;27534;-60
2023/09/17 02:32:14;;;;;;;9.30;6.90;;;;;;;13.26;76.95;100615.32;1742425;82;25432;-59
2023/09/17 02:34:40;;;;;;;12.43;7.25;;;;;;;13.26;77.20;100624.00;1742497;82;25398;-60
2023/09/17 02:37:06;;;;;;;15.70;7.62;;;;;;;13.24;77.35;100620.81;1742436;82;26016;-60
2023/09/17 02:39:35;;;;;;;8.48;6.40;;;;;;;13.23;77.55;100621.95;1742545;82;25446;-59
2023/09/17 02:42:01;;;;;;;8.65;6.00;;;;;;;13.22;77.48;100621.70;1742509;82;28045;-59
2023/09/17 02:44:27;;;;;;;10.75;7.53;;;;;;;13.23;77.42;100624.67;1742417;82;25753;-59
2023/09/17 02:46:53;;;;;;;8.98;6.92;;;;;;;13.23;77.68;100620.03;1742500;82;25407;-58
2023/09/17 02:49:22;;;;;;;11.55;7.35;;;;;;;13.25;77.57;100622.42;1742460;82;25505;-59
2023/09/17 02:51:51;;;;;;;9.77;6.50;;;;;;;13.30;77.87;100626.34;1742767;82;25417;-59
2023/09/17 02:54:18;;;;;;;8.90;6.58;;;;;;;13.32;77.82;100628.20;1742657;82;27533;-59
2023/09/17 02:56:44;;;;;;;11.75;7.42;;;;;;;13.34;77.78;100630.04;1742389;82;25443;-59
2023/09/17 02:59:11;;;;;;;9.45;6.97;;;;;;;13.37;77.88;100633.48;1742511;82;25406;-59
2023/09/17 03:01:38;;;;;;;10.53;6.85;;;;;;;13.37;77.73;100625.33;1742442;82;25485;-58
2023/09/17 03:04:05;;;;;;;8.58;6.28;;;;;;;13.38;77.66;100624.22;1742612;82;25388;-58
2023/09/17 03:06:31;;;;;;;12.25;7.33;;;;;;;13.39;77.79;100621.73;1742547;82;28025;-59
2023/09/17 03:08:57;;;;;;;8.23;6.28;;;;;;;13.42;77.62;100631.97;1742487;82;25695;-59
2023/09/17 03:11:26;;;;;;;10.65;7.25;;;;;;;13.45;77.81;100625.11;1742569;82;25442;-59
2023/09/17 03:13:52;;;;;;;10.35;6.60;;;;;;;13.49;77.85;100632.05;1742391;82;25494;-59
2023/09/17 03:16:18;;;;;;;9.03;7.05;;;;;;;13.49;77.59;100628.77;1742545;82;25375;-58
2023/09/17 03:18:46;;;;;;;9.55;6.75;;;;;;;13.51;77.74;100629.81;1742556;82;28143;-59
2023/09/17 03:21:12;;;;;;;13.43;7.45;;;;;;;13.53;77.80;100630.28;1727924;82;25517;-59
2023/09/17 03:23:39;;;;;;;9.40;7.40;;;;;;;13.53;77.68;100625.64;1716976;82;25452;-59
2023/09/17 03:26:05;;;;;;;9.83;6.92;;;;;;;13.55;77.65;100623.96;1716948;83;25498;-59
2023/09/17 03:28:32;;;;;;;14.15;6.78;;;;;;;13.59;77.63;100627.66;1716998;83;25463;-59
2023/09/17 03:30:59;;;;;;;11.55;7.53;;;;;;;13.60;77.66;100623.80;1717022;83;27557;-59
2023/09/17 03:33:26;;;;;;;11.22;6.95;;;;;;;13.58;77.54;100626.83;1716906;82;25555;-59
2023/09/17 03:35:52;;;;;;;9.65;7.15;;;;;;;13.58;77.47;100631.48;1694751;83;25472;-59
2023/09/17 03:38:18;;;;;;;8.95;7.08;;;;;;;13.59;77.67;100621.65;1717064;83;26204;-58
2023/09/17 03:40:45;;;;;;;13.25;8.05;;;;;;;13.61;77.60;100621.33;1717110;83;25410;-57
2023/09/17 03:43:11;;;;;;;9.48;8.08;;;;;;;13.61;77.58;100622.12;1717112;83;27540;-58
2023/09/17 03:45:37;;;;;;;14.23;9.00;;;;;;;13.61;77.53;100624.84;1717033;82;25400;-59
2023/09/17 03:48:05;;;;;;;10.63;8.45;;;;;;;13.57;77.52;100627.97;1717130;82;25484;-58
2023/09/17 03:50:32;;;;;;;11.57;8.30;;;;;;;13.53;77.62;100628.36;1717063;83;26005;-59
2023/09/17 03:53:05;;;;;;;10.50;7.22;;;;;;;13.50;77.39;100623.59;1717134;83;25445;-58
2023/09/17 03:55:31;;;;;;;11.33;7.75;;;;;;;13.44;77.54;100627.00;1716844;83;28129;-58
2023/09/17 03:57:57;;;;;;;11.18;7.60;;;;;;;13.40;77.59;100628.77;1717001;82;25769;-59
2023/09/17 04:00:24;;;;;;;14.13;8.60;;;;;;;13.34;77.50;100625.17;1717098;83;25472;-59
2023/09/17 04:02:52;;;;;;;11.93;8.60;;;;;;;13.30;77.68;100620.91;1717088;82;25485;-59
2023/09/17 04:05:21;;;;;;;11.57;8.85;;;;;;;13.25;77.98;100623.22;1717122;82;25450;-60
2023/09/17 04:07:48;;;;;;;13.40;9.00;;;;;;;13.20;78.15;100622.02;1717365;83;27493;-59
2023/09/17 04:10:17;;;;;;;12.07;8.38;;;;;;;13.19;78.30;100622.33;1717009;83;25445;-59
2023/09/17 04:12:45;;;;;;;10.78;7.95;;;;;;;13.18;78.43;100624.83;1717231;82;32302;-60
2023/09/17 04:15:20;;;;;;;12.37;8.88;;;;;;;13.14;78.33;100622.48;1717048;83;25469;-59
2023/09/17 04:17:45;;;;;;;15.80;8.70;;;;;;;13.13;78.59;100622.23;1716894;83;25437;-60
2023/09/17 04:20:13;;;;;;;13.00;8.10;;;;;;;13.10;78.52;100624.25;1695190;81;27565;-60
2023/09/17 04:22:42;;;;;;;13.03;8.53;;;;;;;13.09;78.46;100618.00;1734854;82;25386;-59
2023/09/17 04:25:10;;;;;;;10.85;8.68;;;;;;;13.08;78.39;100625.36;1734920;82;31579;-60
2023/09/17 04:27:41;;;;;;;10.95;8.10;;;;;;;13.07;78.44;100625.67;1734697;82;25501;-60
2023/09/17 04:30:08;;;;;;;13.78;8.68;;;;;;;13.05;78.58;100616.48;1734512;82;25460;-60
2023/09/17 04:32:39;;;;;;;15.03;9.80;;;;;;;13.05;78.94;100627.34;1734715;82;27638;-59
2023/09/17 04:35:07;;;;;;;11.15;8.30;;;;;;;13.04;78.81;100628.48;1734616;82;25475;-59
2023/09/17 04:37:35;;;;;;;16.07;9.38;;;;;;;13.05;78.85;100625.20;1734657;82;25422;-59
2023/09/17 04:40:08;;;;;;;10.70;8.83;;;;;;;13.04;79.05;100620.33;1734674;82;25511;-59
2023/09/17 04:42:31;;;;;;;;;;;;;;;13.05;79.23;100617.05;1736599;82;25431;-60
2023/09/17 04:44:57;;;;;;;14.65;9.00;;;;;;;13.04;79.37;100620.33;1734495;82;27272;-60
2023/09/17 04:47:24;;;;;;;11.63;8.85;;;;;;;13.01;79.47;100616.89;1734600;82;25416;-60
2023/09/17 04:49:50;;;;;;;10.85;8.33;;;;;;;12.99;79.55;100615.05;1734691;82;25450;-60
2023/09/17 04:52:17;;;;;;;13.43;7.95;;;;;;;13.01;79.47;100617.45;1734697;82;25479;-60
2023/09/17 04:54:43;;;;;;;14.35;8.58;;;;;;;13.04;79.51;100620.33;1714108;82;25491;-57
2023/09/17 04:57:09;;;;;;;10.38;7.40;;;;;;;13.08;79.68;100620.49;1734659;82;27524;-57
2023/09/17 04:59:36;;;;;;;10.08;7.60;;;;;;;13.13;79.83;100623.05;1734595;82;25399;-58
2023/09/17 05:02:02;;;;;;;11.00;8.28;;;;;;;13.18;79.93;100625.61;1734689;82;25424;-58
2023/09/17 05:04:28;;;;;;;11.65;8.25;;;;;;;13.21;80.07;100628.23;1734636;82;26012;-58
2023/09/17 05:06:54;;;;;;;11.85;8.85;;;;;;;13.29;80.41;100628.02;1734716;82;25391;-57
2023/09/17 05:09:22;;;;;;;14.75;9.05;;;;;;;13.36;80.52;100631.88;1734646;82;27563;-58
2023/09/17 05:11:48;;;;;;;15.43;8.58;;;;;;;13.43;80.40;100634.11;1734577;82;25395;-58
2023/09/17 05:14:14;;;;;;;11.75;7.25;;;;;;;13.48;80.42;100625.01;1734757;82;25473;-58
2023/09/17 05:16:41;;;;;;;12.93;7.83;;;;;;;13.55;80.31;100636.19;1734585;82;25582;-57
2023/09/17 05:19:07;;;;;;;13.35;8.55;;;;;;;13.59;80.41;100637.16;1734721;82;25391;-57
2023/09/17 05:21:33;;;;;;;11.50;8.30;;;;;;;13.67;80.48;100638.27;1721537;82;27468;-58
2023/09/17 05:23:59;;;;;;;16.82;9.10;;;;;;;13.75;80.87;100636.89;1703967;83;25709;-59
2023/09/17 05:26:26;;;;;;;13.15;9.10;;;;;;;13.87;80.80;100639.53;1704028;83;25428;-59
2023/09/17 05:28:52;;;;;;;15.15;9.33;;;;;;;13.93;80.46;100644.47;1704020;84;25441;-59
2023/09/17 05:31:18;;;;;;;13.85;9.60;;;;;;;14.05;80.64;100636.22;1704074;83;25409;-58
2023/09/17 05:33:45;;;;;;;13.58;9.10;;;;;;;14.16;81.00;100630.66;1704053;83;27639;-58
2023/09/17 05:36:11;;;;;;;12.70;9.75;;;;;;;14.29;80.83;100631.59;1703957;84;25460;-59
2023/09/17 05:38:37;;;;;;;13.25;9.50;;;;;;;14.36;80.43;100633.23;1704009;84;25440;-58
2023/09/17 05:41:04;;;;;;;15.15;9.60;;;;;;;14.45;80.44;100642.15;1703963;83;25996;-57
2023/09/17 05:43:30;;;;;;;11.88;9.03;;;;;;;14.54;80.26;100637.48;1704050;83;25521;-60
2023/09/17 05:45:56;;;;;;;13.68;9.65;;;;;;;14.63;80.25;100638.05;1704055;84;27461;-58
2023/09/17 05:48:23;;;;;;;13.40;9.28;;;;;;;14.73;79.96;100639.82;1703957;84;25425;-58
2023/09/17 05:50:52;;;;;;;12.25;8.65;;;;;;;14.83;79.49;100644.64;1704037;84;25406;-59
2023/09/17 05:53:19;;;;;;;13.72;9.33;;;;;;;14.88;79.28;100637.11;1704259;83;25536;-58
2023/09/17 05:55:45;;;;;;;16.10;8.73;;;;;;;14.97;79.34;100638.41;1704043;83;25480;-58
2023/09/17 05:58:11;;;;;;;14.18;9.08;;;;;;;15.09;79.04;100635.76;1703985;84;27520;-58
2023/09/17 06:00:38;;;;;;;13.48;8.70;;;;;;;15.23;79.33;100637.44;1703920;84;25783;-59
2023/09/17 06:03:05;;;;;;;15.53;9.25;;;;;;;15.38;79.70;100642.86;1704009;84;25584;-58
2023/09/17 06:05:31;;;;;;;19.15;9.75;;;;;;;15.53;79.11;100638.16;1703984;84;25495;-58
2023/09/17 06:07:57;;;;;;;15.75;9.78;;;;;;;15.65;79.02;100638.78;1704078;83;25463;-59
2023/09/17 06:10:23;;;;;;;13.90;9.65;;;;;;;15.81;79.10;100641.70;1704098;84;27566;-59
2023/09/17 06:12:50;;;;;;;18.87;10.08;;;;;;;15.95;78.14;100642.19;1703932;84;25473;-58
2023/09/17 06:15:17;;;;;;;11.70;9.40;;;;;;;16.09;78.27;100641.91;1704009;83;25405;-59
2023/09/17 06:17:44;;;;;;;14.07;9.50;;;;;;;16.25;78.26;100647.50;1703958;84;25680;-59
2023/09/17 06:20:10;;;;;;;13.25;9.53;;;;;;;16.42;77.54;100641.83;1704062;84;25417;-58
2023/09/17 06:22:36;;;;;;;17.35;10.38;;;;;;;16.56;76.78;100642.86;1732823;82;27508;-59
2023/09/17 06:25:04;;;;;;;18.62;10.25;;;;;;;16.69;76.65;100649.13;1744809;82;25404;-58
2023/09/17 06:27:30;;;;;;;21.87;10.00;;;;;;;16.90;76.92;100652.34;1744895;82;25435;-59
2023/09/17 06:29:56;;;;;;;14.38;9.15;;;;;;;17.05;76.00;100652.22;1744872;82;25507;-60
2023/09/17 06:32:23;;;;;;;16.93;9.48;;;;;;;17.24;76.12;100648.30;1744905;82;25420;-60
2023/09/17 06:34:49;;;;;;;14.25;10.18;;;;;;;17.45;75.39;100656.89;1744884;82;27508;-59
2023/09/17 06:37:15;;;;;;;12.40;9.73;;;;;;;17.54;73.96;100656.98;1744744;82;25623;-60
2023/09/17 06:39:42;;;;;;;14.90;8.73;;;;;;;17.60;73.87;100660.84;1744905;82;25484;-60
2023/09/17 06:42:09;;;;;;;14.68;9.00;;;;;;;17.70;74.06;100654.88;1744840;82;25511;-59
2023/09/17 06:44:36;;;;;;;13.00;9.00;;;;;;;17.83;72.96;100661.09;1744913;82;25490;-59
2023/09/17 06:47:02;;;;;;;15.53;9.05;;;;;;;17.97;72.57;100660.72;1744889;82;27479;-59
2023/09/17 06:49:29;;;;;;;14.83;9.45;;;;;;;18.04;71.60;100654.84;1744791;82;25875;-59
2023/09/17 06:51:55;;;;;;;16.05;10.30;;;;;;;18.13;72.34;100657.41;1744881;82;25459;-60
2023/09/17 06:54:21;;;;;;;12.37;8.55;;;;;;;18.29;71.58;100660.19;1744842;82;25491;-59
2023/09/17 06:56:48;;;;;;;10.32;8.35;;;;;;;18.50;71.69;100650.33;1744889;82;25424;-59
2023/09/17 06:59:14;;;;;;;16.80;9.98;;;;;;;18.69;71.03;100654.30;1744860;82;28046;-59
2023/09/17 07:01:41;;;;;;;14.78;9.10;;;;;;;18.87;71.66;100647.91;1744767;82;25458;-60
2023/09/17 07:04:08;;;;;;;12.98;8.83;;;;;;;19.20;71.62;100652.34;1744860;82;25484;-60
2023/09/17 07:06:36;;;;;;;13.13;9.48;;;;;;;19.44;70.58;100645.59;1744844;82;26003;-60
2023/09/17 07:09:03;;;;;;;12.25;8.68;;;;;;;19.68;69.78;100649.44;1744386;82;25520;-60
2023/09/17 07:11:30;;;;;;;11.93;8.68;;;;;;;19.95;69.82;100654.48;1745056;82;27489;-60
2023/09/17 07:13:56;;;;;;;14.47;9.60;;;;;;;20.13;68.21;100650.67;1744942;82;25468;-59
2023/09/17 07:16:24;;;;;;;14.03;9.63;;;;;;;20.42;69.20;100649.01;1744989;82;25412;-59
2023/09/17 07:18:51;;;;;;;12.23;9.18;;;;;;;20.73;68.46;100649.33;1744934;82;26063;-60
2023/09/17 07:21:17;;;;;;;13.08;9.48;;;;;;;21.05;67.96;100638.79;1744897;82;25424;-59
2023/09/17 07:23:43;;;;;;;16.73;10.23;;;;;;;21.44;67.75;100645.38;1737345;82;27455;-61
2023/09/17 07:26:12;;;;;;;10.78;8.48;;;;;;;21.75;66.02;100648.91;1737303;82;25395;-60
2023/09/17 07:28:38;;;;;;;11.05;8.90;;;;;;;21.92;65.29;100646.14;1737279;82;25497;-60
2023/09/17 07:31:07;;;;;;;12.00;8.70;;;;;;;22.24;64.84;100647.05;1737353;82;25565;-61
2023/09/17 07:33:32;;;;;;;11.10;8.60;;;;;;;22.51;63.74;100644.16;1736928;82;25603;-62
2023/09/17 07:35:58;;;;;;;15.50;9.28;;;;;;;22.80;62.74;100642.95;1737340;82;28139;-61
2023/09/17 07:38:24;;;;;;;11.45;8.20;;;;;;;23.06;62.34;100640.00;1737227;82;25584;-62
2023/09/17 07:40:51;;;;;;;12.93;8.20;;;;;;;23.32;60.18;100638.14;1737329;82;25429;-62
2023/09/17 07:43:17;;;;;;;13.55;8.65;;;;;;;23.37;60.23;100632.85;1737280;82;25472;-62
2023/09/17 07:45:43;;;;;;;9.25;7.95;;;;;;;23.63;60.11;100635.89;1737386;82;25396;-60
2023/09/17 07:48:10;;;;;;;12.73;8.95;;;;;;;23.94;59.41;100632.23;1737375;82;27448;-60
2023/09/17 08:04:51;;;;;;;11.90;9.60;;;;;;;25.30;55.07;100627.19;1887095;76;25324;-65
2023/09/17 08:07:19;;;;;;;9.38;8.38;;;;;;;25.65;54.49;100642.84;1858274;77;25528;-66
2023/09/17 08:09:49;;;;;;;11.30;8.70;;;;;;;25.84;54.03;100627.69;1857996;77;28198;-64
2023/09/17 08:24:55;;;;;;;13.30;8.80;;;;;;;27.47;50.35;100629.16;1868305;76;25511;-66
2023/09/17 08:27:21;;;;;;;10.70;8.43;;;;;;;27.47;50.35;100629.16;1824497;78;25524;-66
2023/09/17 08:29:48;;;;;;;15.78;11.73;;;;;;;27.58;49.61;100613.14;1824508;78;27476;-66
2023/09/17 08:32:14;;;;;;;10.68;8.60;;;;;;;27.53;49.16;100615.00;1824431;78;25522;-64
2023/09/17 08:34:41;;;;;;;9.23;8.23;;;;;;;27.65;49.17;100612.26;1824496;78;25526;-66
2023/09/17 08:37:07;;;;;;;10.82;7.80;;;;;;;28.00;49.42;100610.77;1824415;78;25546;-65
2023/09/17 08:39:34;;;;;;;12.00;8.00;;;;;;;28.25;48.44;100611.15;1824517;78;25392;-65
2023/09/17 08:42:01;;;;;;;10.05;8.40;;;;;;;28.40;47.94;100604.74;1824477;78;27487;-65
2023/09/17 08:44:31;;;;;;;8.68;7.80;;;;;;;28.68;47.75;100603.45;1824344;78;25576;-65
2023/09/17 08:46:59;;;;;;;9.93;8.23;;;;;;;29.03;47.10;100599.80;1824504;78;25405;-64
2023/09/17 08:49:26;;;;;;;12.88;8.83;;;;;;;29.29;46.10;100607.66;1824585;78;25703;-65
2023/09/17 08:51:57;;;;;;;11.25;8.68;;;;;;;29.32;44.81;100611.77;1824479;78;25439;-65
2023/09/17 08:54:40;;;;;;;9.98;8.25;;;;;;;29.12;44.21;100611.75;1824483;78;28162;-66
2023/09/17 08:57:13;;;;;;;11.75;8.65;;;;;;;28.86;44.54;100605.90;1824395;78;25395;-66
2023/09/17 08:59:48;;;;;;;9.85;8.30;;;;;;;29.27;45.18;100610.88;1824489;78;25557;-65
2023/09/17 09:02:25;;;;;;;11.93;7.75;;;;;;;29.59;44.25;100617.14;1824405;78;25480;-64
2023/09/17 09:04:52;;;;;;;9.13;8.23;;;;;;;29.58;43.11;100617.57;1822401;78;25539;-63
2023/09/17 09:07:22;;;;;;;10.93;7.70;;;;;;;29.44;43.24;100613.11;1824551;77;28467;-62
2023/09/17 09:09:52;;;;;;;10.43;7.67;;;;;;;29.53;43.45;100617.47;1824376;78;25365;-64
2023/09/17 09:12:19;;;;;;;10.28;7.70;;;;;;;29.79;44.26;100605.16;1824473;78;25503;-64
2023/09/17 11:21:08;;;;;;;8.15;6.85;;;;;;;33.35;34.33;100573.28;1887104;76;25502;-64
2023/09/17 11:23:46;;;;;;;8.08;7.00;;;;;;;32.86;35.24;100571.12;1788324;80;25589;-63
2023/09/17 11:26:15;;;;;;;7.17;6.58;;;;;;;33.00;35.60;100575.41;1820596;78;28088;-64
2023/09/17 11:28:41;;;;;;;6.58;5.97;;;;;;;33.23;35.79;100572.14;1757509;80;25602;-65
2023/09/17 11:31:10;;;;;;;7.30;6.60;;;;;;;33.32;35.24;100578.41;1788121;80;25450;-64
2023/09/17 11:33:37;;;;;;;7.58;6.55;;;;;;;33.21;35.21;100579.46;1757495;80;25475;-66
2023/09/17 11:36:06;;;;;;;7.20;6.50;;;;;;;33.28;34.90;100579.18;1787809;80;25414;-65
2023/09/17 11:38:32;;;;;;;6.90;6.20;;;;;;;33.11;34.99;100575.16;1788218;80;27606;-63
2023/09/17 11:41:10;;;;;;;7.42;6.05;;;;;;;33.15;35.12;100568.67;1787972;80;25612;-66
2023/09/17 11:43:39;;;;;;;;;;;;;;;33.24;34.67;100569.52;1790801;80;25553;-67
2023/09/17 11:46:10;;;;;;;6.22;5.62;;;;;;;33.21;35.15;100567.62;1788238;80;25571;-74
2023/09/17 11:48:38;;;;;;;6.97;6.17;;;;;;;33.10;35.04;100563.02;1788153;80;25609;-71
2023/09/17 11:51:26;;;;;;;8.75;5.95;;;;;;;33.22;35.23;100565.59;1788280;80;27471;-68
2023/09/17 11:53:57;;;;;;;7.70;6.00;;;;;;;33.13;34.83;100572.70;1757402;80;25817;-65
2023/09/17 11:56:27;;;;;;;6.78;6.17;;;;;;;33.00;35.37;100567.00;1788228;80;25584;-71
2023/09/17 11:59:05;;;;;;;8.68;6.08;;;;;;;32.97;35.23;100560.31;1788144;80;25561;-70
2023/09/17 12:01:36;;;;;;;7.97;5.90;;;;;;;33.12;35.41;100561.33;1788170;80;25466;-72
2023/09/17 12:04:06;;;;;;;6.87;6.15;;;;;;;33.32;35.36;100564.39;1788130;80;27461;-68
2023/09/17 12:06:38;;;;;;;9.60;7.70;;;;;;;33.51;35.28;100569.48;1788023;80;26055;-67
2023/09/17 12:09:15;;;;;;;7.85;7.05;;;;;;;33.74;34.89;100565.35;1788095;80;25403;-67
2023/09/17 12:11:35;;;;;;;7.72;6.60;;;;;;;33.66;34.32;100573.86;1786356;80;25879;-67
2023/09/17 12:14:06;;;;;;;6.72;6.10;;;;;;;33.63;34.29;100569.98;1788069;80;25413;-68
2023/09/17 12:16:33;;;;;;;6.65;5.95;;;;;;;33.62;34.48;100567.00;1788112;80;26568;-67
2023/09/17 12:19:00;;;;;;;8.08;6.00;;;;;;;33.66;34.13;100564.85;1787875;80;25561;-68
2023/09/17 12:21:28;;;;;;;6.72;6.05;;;;;;;33.68;34.46;100572.20;1788170;80;25548;-73
2023/09/17 12:24:05;;;;;;;8.95;6.20;;;;;;;33.96;34.44;100570.86;1788041;80;25991;-74
2023/09/17 12:26:26;;;;;;;;;;;;;;;34.09;34.17;100576.34;1788147;80;25393;-73
2023/09/17 12:28:52;;;;;;;8.85;6.33;;;;;;;34.16;33.69;100574.62;1787603;80;27468;-72
2023/09/17 12:31:20;;;;;;;7.22;5.60;;;;;;;34.02;33.57;100573.21;1787640;80;25574;-70
2023/09/17 12:33:46;;;;;;;6.85;6.15;;;;;;;33.92;34.20;100576.45;1787560;80;25448;-69
2023/09/17 12:36:13;;;;;;;6.20;5.60;;;;;;;34.18;34.20;100569.95;1787591;80;25395;-70
2023/09/17 12:38:39;;;;;;;6.58;5.78;;;;;;;34.24;33.97;100574.52;1787651;80;25542;-72
2023/09/17 12:41:05;;;;;;;10.82;6.12;;;;;;;34.00;33.97;100566.49;1787727;80;28117;-70
2023/09/17 12:43:32;;;;;;;8.05;5.92;;;;;;;34.10;34.22;100559.64;1787637;80;25599;-71
2023/09/17 12:46:01;;;;;;;7.40;6.70;;;;;;;34.27;33.92;100559.38;1787566;80;25616;-72
2023/09/17 12:48:29;;;;;;;7.00;6.30;;;;;;;34.37;33.81;100566.55;1787627;80;25584;-72
2023/09/17 12:50:56;;;;;;;7.67;6.87;;;;;;;34.39;33.18;100566.86;1786862;80;25801;-70
2023/09/17 12:53:23;;;;;;;8.07;6.43;;;;;;;34.15;33.08;100562.47;1787907;80;27521;-73
2023/09/17 12:55:49;;;;;;;9.73;6.60;;;;;;;33.99;33.47;100565.72;1786761;80;25803;-78
2023/09/17 13:08:39;;;;;;;7.42;6.40;;;;;;;34.29;33.44;100563.90;1814115;76;26959;-70
2023/09/17 13:11:05;;;;;;;6.30;5.80;;;;;;;34.14;33.28;100561.70;1830409;78;25671;-69
2023/09/17 13:13:33;;;;;;;8.10;6.25;;;;;;;34.04;33.41;100553.88;1830249;78;25640;-66
2023/09/17 13:16:00;;;;;;;6.80;6.12;;;;;;;33.99;33.77;100552.33;1830853;78;25628;-66
2023/09/17 13:18:26;;;;;;;6.20;5.62;;;;;;;34.12;33.77;100557.14;1831735;78;27815;-68
2023/09/17 13:20:53;;;;;;;6.35;5.58;;;;;;;34.24;33.21;100558.27;1831633;78;25614;-72
2023/09/17 13:23:19;;;;;;;6.15;5.65;;;;;;;33.92;32.96;100558.22;1831622;78;25599;-69
2023/09/17 13:25:53;;;;;;;6.35;5.75;;;;;;;33.89;33.55;100552.16;1831635;78;25446;-71
2023/09/17 13:28:20;;;;;;;9.43;5.78;;;;;;;33.88;33.19;100563.98;1831812;78;25557;-70
2023/09/17 13:30:47;;;;;;;7.05;5.90;;;;;;;33.73;33.34;100556.00;1831645;78;27478;-72
2023/09/17 13:33:15;;;;;;;6.67;5.72;;;;;;;33.66;33.52;100551.43;1831610;78;25532;-72
2023/09/17 13:35:44;;;;;;;6.72;6.10;;;;;;;33.75;33.95;100552.91;1831086;77;25619;-72
2023/09/17 13:38:13;;;;;;;6.47;5.87;;;;;;;33.75;33.74;100546.49;1830701;77;25600;-72
2023/09/17 13:40:46;;;;;;;9.08;5.33;;;;;;;33.81;33.75;100549.63;1831740;78;25407;-73
2023/09/17 13:43:13;;;;;;;6.72;5.95;;;;;;;33.87;34.16;100546.38;1830790;78;28217;-66
2023/09/17 13:45:53;;;;;;;6.37;5.70;;;;;;;33.77;33.49;100541.22;1831541;78;25431;-65
2023/09/17 13:48:23;;;;;;;5.30;4.15;;;;;;;33.64;33.95;100537.88;1830508;78;25407;-66
2023/09/17 13:50:50;;;;;;;9.88;7.05;;;;;;;33.62;34.23;100539.59;1831614;78;25549;-66
2023/09/17 13:53:18;;;;;;;9.28;8.35;;;;;;;33.69;33.93;100544.93;1831677;78;25406;-66
2023/09/17 13:55:46;;;;;;;8.98;7.58;;;;;;;33.68;33.90;100540.58;1831770;78;27545;-64
2023/09/17 13:58:13;;;;;;;6.27;4.87;;;;;;;33.64;33.75;100537.09;1831553;78;25613;-63
2023/09/17 14:00:40;;;;;;;11.73;5.62;;;;;;;33.55;34.33;100531.48;1831327;78;25584;-65
2023/09/17 14:03:16;;;;;;;7.15;5.42;;;;;;;33.58;34.38;100535.53;1831600;78;25610;-64
2023/09/17 14:05:44;;;;;;;6.70;5.78;;;;;;;33.53;34.05;100533.94;1830329;78;25619;-64
2023/09/17 14:08:11;;;;;;;6.35;5.75;;;;;;;33.61;34.09;100526.80;1830473;78;27459;-64